createdAt,value
2022-08-25T00:02:00.475Z,59.88
2022-08-25T00:04:29.737Z,60.08
2022-08-25T00:07:02.099Z,60.31
2022-08-25T00:09:30.612Z,60.17
2022-08-25T00:11:57.892Z,60.41
2022-08-25T00:14:30.007Z,60.84
2022-08-25T00:16:57.524Z,60.83
2022-08-25T00:19:28.780Z,61.25
2022-08-25T00:21:56.403Z,61.16
2022-08-25T00:24:24.592Z,61.31
2022-08-25T00:26:55.176Z,61.16
2022-08-25T00:29:25.940Z,61.17
2022-08-25T00:31:54.598Z,61.42
2022-08-25T00:34:29.419Z,61.99
2022-08-25T00:36:56.759Z,61.77
2022-08-25T00:39:24.505Z,62.04
2022-08-25T00:41:56.692Z,62.15
2022-08-25T00:44:25.385Z,62.06
2022-08-25T00:46:56.383Z,62.31
2022-08-25T00:49:40.802Z,62.45
2022-08-25T00:52:12.193Z,62.24
2022-08-25T00:54:50.789Z,62.81
2022-08-25T00:57:34.136Z,62.66
2022-08-25T01:00:10.790Z,62.71
2022-08-25T01:02:38.579Z,62.81
2022-08-25T01:05:06.508Z,63.06
2022-08-25T01:07:33.922Z,63.45
2022-08-25T01:10:01.338Z,63.75
2022-08-25T01:12:30.535Z,63.88
2022-08-25T01:14:58.280Z,64.03
2022-08-25T01:17:28.208Z,63.96
2022-08-25T01:19:55.943Z,63.98
2022-08-25T01:22:26.825Z,64.35
2022-08-25T01:25:02.212Z,64.71
2022-08-25T01:27:30.601Z,64.63
2022-08-25T01:29:58.161Z,64.71
2022-08-25T01:32:25.268Z,65.07
2022-08-25T01:34:52.328Z,65.24
2022-08-25T01:37:20.769Z,65.20
2022-08-25T01:39:48.168Z,65.38
2022-08-25T01:42:15.132Z,65.50
2022-08-25T01:44:45.492Z,65.53
2022-08-25T01:47:13.896Z,65.68
2022-08-25T01:49:41.207Z,65.75
2022-08-25T01:52:40.475Z,66.07
2022-08-25T01:55:07.849Z,65.92
2022-08-25T01:57:34.837Z,65.89
2022-08-25T02:00:01.858Z,65.92
2022-08-25T02:02:38.026Z,66.30
2022-08-25T02:05:11.686Z,65.90
2022-08-25T02:07:38.775Z,65.93
2022-08-25T02:10:07.591Z,66.06
2022-08-25T02:12:35.357Z,66.22
2022-08-25T02:15:22.448Z,65.93
2022-08-25T02:17:49.466Z,65.87
2022-08-25T02:20:16.757Z,65.73
2022-08-25T02:22:53.053Z,66.10
2022-08-25T02:25:24.013Z,65.91
2022-08-25T02:27:51.258Z,65.82
2022-08-25T02:30:18.486Z,65.84
2022-08-25T02:32:45.444Z,66.08
2022-08-25T02:35:13.848Z,66.19
2022-08-25T02:37:41.085Z,65.91
2022-08-25T02:40:08.974Z,65.79
2022-08-25T02:42:37.323Z,65.77
2022-08-25T02:45:05.044Z,65.75
2022-08-25T02:47:32.115Z,65.73
2022-08-25T02:49:59.626Z,65.65
2022-08-25T02:52:26.686Z,65.40
2022-08-25T02:54:54.105Z,65.39
2022-08-25T02:57:21.725Z,65.43
2022-08-25T02:59:48.842Z,65.41
2022-08-25T03:02:16.893Z,65.30
2022-08-25T03:04:44.247Z,65.32
2022-08-25T03:07:12.719Z,65.27
2022-08-25T03:09:39.803Z,65.36
2022-08-25T03:12:07.054Z,65.16
2022-08-25T03:14:33.946Z,65.09
2022-08-25T03:17:01.063Z,65.34
2022-08-25T03:19:28.062Z,65.46
2022-08-25T03:21:57.073Z,65.25
2022-08-25T03:24:24.346Z,65.37
2022-08-25T03:26:54.339Z,65.28
2022-08-25T03:29:26.717Z,65.29
2022-08-25T03:31:55.673Z,65.21
2022-08-25T03:34:23.195Z,65.03
2022-08-25T03:36:53.532Z,64.81
2022-08-25T03:39:23.559Z,64.69
2022-08-25T03:41:51.814Z,64.51
2022-08-25T03:44:20.655Z,64.47
2022-08-25T03:46:51.380Z,64.50
2022-08-25T03:49:22.867Z,64.40
2022-08-25T03:51:52.817Z,64.28
2022-08-25T03:54:24.033Z,63.89
2022-08-25T03:56:51.414Z,63.86
2022-08-25T03:59:18.992Z,63.61
2022-08-25T04:01:50.226Z,63.13
2022-08-25T04:04:20.559Z,62.98
2022-08-25T04:06:47.523Z,62.61
2022-08-25T04:09:14.523Z,62.15
2022-08-25T04:11:42.512Z,61.72
2022-08-25T04:14:15.803Z,61.52
2022-08-25T04:16:44.355Z,60.80
2022-08-25T04:19:12.078Z,61.03
2022-08-25T04:21:40.818Z,60.12
2022-08-25T04:24:09.949Z,59.75
2022-08-25T04:26:43.925Z,59.94
2022-08-25T04:29:12.670Z,59.13
2022-08-25T04:31:43.123Z,59.19
2022-08-25T04:34:29.664Z,58.60
2022-08-25T04:37:02.014Z,57.81
2022-08-25T04:39:29.563Z,57.71
2022-08-25T04:41:56.655Z,57.35
2022-08-25T04:44:23.762Z,57.26
2022-08-25T04:46:50.806Z,55.69
2022-08-25T04:49:18.226Z,52.57
2022-08-25T04:51:45.791Z,50.45
2022-08-25T04:54:17.039Z,45.99
2022-08-25T04:56:44.239Z,43.23
2022-08-25T04:59:14.164Z,41.62
2022-08-25T05:01:43.289Z,39.63
2022-08-25T05:04:23.442Z,37.67
2022-08-25T05:06:56.406Z,35.83
2022-08-25T05:09:25.227Z,35.79
2022-08-25T05:11:53.558Z,33.60
2022-08-25T05:14:25.573Z,32.79
2022-08-25T05:16:58.161Z,30.72
2022-08-25T05:19:26.576Z,30.99
2022-08-25T05:21:54.097Z,30.45
2022-08-25T05:24:22.382Z,30.11
2022-08-25T05:26:49.921Z,29.35
2022-08-25T05:29:17.571Z,28.02
2022-08-25T05:31:50.169Z,27.31
2022-08-25T05:34:19.565Z,26.78
2022-08-25T05:36:47.297Z,26.35
2022-08-25T05:39:14.814Z,26.07
2022-08-25T05:41:41.932Z,25.56
2022-08-25T05:44:09.041Z,25.18
2022-08-25T05:46:36.071Z,25.39
2022-08-25T05:49:03.071Z,25.17
2022-08-25T05:51:30.177Z,24.80
2022-08-25T05:53:57.104Z,25.23
2022-08-25T05:56:24.146Z,24.09
2022-08-25T05:58:51.396Z,24.02
2022-08-25T06:01:46.547Z,23.78
2022-08-25T06:04:18.094Z,23.19
2022-08-25T06:06:45.176Z,22.35
2022-08-25T06:09:12.148Z,22.52
2022-08-25T06:11:40.708Z,21.91
2022-08-25T06:14:11.359Z,21.80
2022-08-25T06:16:39.443Z,21.53
2022-08-25T06:19:09.080Z,20.79
2022-08-25T06:21:39.238Z,20.04
2022-08-25T06:24:09.228Z,19.04
2022-08-25T06:26:39.250Z,18.47
2022-08-25T06:29:06.243Z,18.73
2022-08-25T06:31:33.464Z,18.33
2022-08-25T06:34:00.537Z,18.88
2022-08-25T06:36:27.472Z,17.74
2022-08-25T06:38:54.398Z,17.65
2022-08-25T06:41:21.375Z,17.29
2022-08-25T06:43:51.830Z,16.29
2022-08-25T06:46:35.665Z,15.95
2022-08-25T06:49:06.319Z,15.58
2022-08-25T06:51:36.269Z,16.44
2022-08-25T06:54:05.821Z,15.84
2022-08-25T06:56:34.153Z,15.27
2022-08-25T06:59:03.323Z,14.96
2022-08-25T07:01:32.283Z,15.36
2022-08-25T07:04:02.391Z,15.01
2022-08-25T07:06:31.929Z,15.02
2022-08-25T07:08:59.452Z,14.75
2022-08-25T07:11:26.847Z,14.29
2022-08-25T07:13:54.169Z,14.34
2022-08-25T07:16:21.757Z,13.91
2022-08-25T07:18:49.619Z,13.54
2022-08-25T07:21:17.499Z,13.32
2022-08-25T07:23:47.155Z,13.17
2022-08-25T07:29:09.588Z,13.17
2022-08-25T07:31:37.514Z,12.66
2022-08-25T07:34:24.153Z,12.86
2022-08-25T07:36:53.806Z,13.49
2022-08-25T07:39:22.128Z,12.14
2022-08-25T07:41:52.442Z,13.26
2022-08-25T07:44:21.782Z,12.83
2022-08-25T07:46:50.347Z,11.87
2022-08-25T07:49:23.570Z,12.78
2022-08-25T07:52:05.437Z,12.48
2022-08-25T07:54:35.559Z,11.88
2022-08-25T07:57:09.053Z,12.21
2022-08-25T07:59:40.937Z,12.14
2022-08-25T08:02:18.965Z,11.91
2022-08-25T08:04:52.454Z,12.08
2022-08-25T08:07:42.110Z,11.31
2022-08-25T08:13:01.046Z,11.93
2022-08-25T08:15:29.609Z,12.92
2022-08-25T08:17:59.350Z,13.02
2022-08-25T08:20:27.317Z,12.50
2022-08-25T08:22:55.280Z,12.68
2022-08-25T08:25:27.590Z,12.59
2022-08-25T08:27:56.015Z,11.74
2022-08-25T08:30:26.210Z,11.76
2022-08-25T08:33:11.434Z,12.29
2022-08-25T08:35:41.221Z,12.13
2022-08-25T08:38:14.747Z,12.26
2022-08-25T08:41:14.640Z,11.76
2022-08-25T08:43:43.879Z,11.31
2022-08-25T08:46:11.397Z,11.12
2022-08-25T08:48:59.148Z,10.29
2022-08-25T08:51:33.539Z,11.82
2022-08-25T08:54:30.001Z,11.13
2022-08-25T08:57:15.550Z,10.34
2022-08-25T08:59:55.001Z,10.47
2022-08-25T09:02:37.923Z,9.90
2022-08-25T09:05:15.091Z,10.16
2022-08-25T09:07:48.536Z,10.64
2022-08-25T09:10:23.488Z,10.34
2022-08-25T09:13:19.863Z,10.38
2022-08-25T09:16:20.644Z,9.88
2022-08-25T09:19:23.424Z,10.24
2022-08-25T09:21:59.817Z,9.80
2022-08-25T09:24:42.358Z,10.03
2022-08-25T09:27:41.774Z,9.21
2022-08-25T09:30:21.514Z,9.69
2022-08-25T09:33:05.274Z,10.48
2022-08-25T09:35:35.660Z,9.96
2022-08-25T09:38:13.285Z,9.07
2022-08-25T09:40:46.171Z,9.35
2022-08-25T09:43:37.666Z,9.07
2022-08-25T09:46:26.866Z,8.82
2022-08-25T09:48:56.929Z,9.73
2022-08-25T09:51:38.166Z,9.87
2022-08-25T09:54:15.828Z,9.63
2022-08-25T09:56:59.478Z,11.32
2022-08-25T09:59:34.901Z,11.17
2022-08-25T10:02:06.461Z,10.83
2022-08-25T10:04:40.044Z,10.01
2022-08-25T10:07:52.055Z,9.53
2022-08-25T10:10:28.727Z,8.90
2022-08-25T10:13:01.932Z,9.11
2022-08-25T10:15:36.134Z,9.40
2022-08-25T10:18:26.301Z,9.53
2022-08-25T10:21:14.954Z,9.43
2022-08-25T10:23:52.843Z,9.09
2022-08-25T10:26:35.243Z,9.61
2022-08-25T10:29:20.475Z,9.02
2022-08-25T10:32:30.902Z,9.88
2022-08-25T10:35:03.497Z,9.08
2022-08-25T10:37:52.682Z,9.53
2022-08-25T10:40:28.872Z,10.27
2022-08-25T10:43:08.559Z,10.24
2022-08-25T10:45:45.863Z,9.61
2022-08-25T10:48:25.642Z,10.35
2022-08-25T10:51:01.269Z,10.37
2022-08-25T10:53:34.171Z,10.31
2022-08-25T10:56:22.630Z,10.03
2022-08-25T10:59:13.489Z,9.41
2022-08-25T11:01:45.292Z,9.65
2022-08-25T11:04:31.337Z,9.67
2022-08-25T11:07:19.715Z,10.45
2022-08-25T11:09:51.147Z,9.48
2022-08-25T11:12:25.801Z,10.60
2022-08-25T11:14:57.878Z,9.94
2022-08-25T11:17:38.899Z,10.48
2022-08-25T11:20:19.953Z,12.02
2022-08-25T11:23:14.913Z,11.79
2022-08-25T11:25:51.452Z,11.59
2022-08-25T11:29:01.189Z,11.25
2022-08-25T11:31:28.863Z,10.97
2022-08-25T11:33:58.165Z,10.73
2022-08-25T11:36:36.939Z,10.75
2022-08-25T11:39:13.012Z,11.11
2022-08-25T11:42:25.916Z,10.94
2022-08-25T11:45:17.591Z,11.93
2022-08-25T11:48:13.172Z,11.65
2022-08-25T11:50:55.720Z,10.98
2022-08-25T11:53:28.950Z,11.33
2022-08-25T11:56:07.679Z,11.65
2022-08-25T11:58:49.865Z,12.59
2022-08-25T12:01:32.750Z,13.40
2022-08-25T12:04:44.879Z,13.82
2022-08-25T12:07:17.482Z,14.15
2022-08-25T12:09:51.513Z,14.98
2022-08-25T12:12:32.449Z,15.02
2022-08-25T12:15:33.604Z,15.23
2022-08-25T12:18:35.506Z,16.27
2022-08-25T12:21:04.070Z,16.01
2022-08-25T12:24:13.945Z,15.61
2022-08-25T12:27:00.904Z,16.89
2022-08-25T12:30:15.591Z,17.90
2022-08-25T12:32:49.183Z,18.77
2022-08-25T12:35:30.311Z,19.15
2022-08-25T12:38:19.149Z,18.52
2022-08-25T12:40:46.020Z,19.11
2022-08-25T12:43:26.779Z,20.09
2022-08-25T12:46:19.911Z,21.00
2022-08-25T12:49:01.951Z,21.02
2022-08-25T12:51:48.459Z,21.02
2022-08-25T12:54:27.840Z,21.81
2022-08-25T12:57:03.148Z,21.27
2022-08-25T12:59:49.935Z,21.54
2022-08-25T13:02:51.594Z,22.55
2022-08-25T13:05:37.649Z,21.82
2022-08-25T13:08:07.583Z,21.96
2022-08-25T13:11:04.934Z,22.47
2022-08-25T13:13:40.601Z,22.34
2022-08-25T13:16:16.282Z,23.14
2022-08-25T13:18:45.261Z,23.35
2022-08-25T13:21:20.236Z,22.94
2022-08-25T13:23:50.801Z,22.86
2022-08-25T13:26:27.024Z,22.85
2022-08-25T13:29:00.189Z,23.06
2022-08-25T13:31:29.832Z,22.91
2022-08-25T13:34:08.243Z,22.88
2022-08-25T13:37:02.275Z,23.15
2022-08-25T13:39:54.874Z,23.10
2022-08-25T13:42:20.495Z,23.41
2022-08-25T13:44:55.221Z,23.09
2022-08-25T13:47:45.153Z,23.47
2022-08-25T13:50:31.327Z,24.03
2022-08-25T13:53:11.558Z,23.40
2022-08-25T13:55:51.720Z,23.30
2022-08-25T13:58:44.283Z,23.67
2022-08-25T14:01:23.307Z,23.99
2022-08-25T14:04:50.477Z,23.72
2022-08-25T14:07:22.580Z,23.71
2022-08-25T14:09:58.475Z,24.31
2022-08-25T14:12:45.030Z,23.82
2022-08-25T14:15:34.037Z,23.98
2022-08-25T14:18:30.849Z,24.89
2022-08-25T14:21:07.671Z,24.34
2022-08-25T14:23:37.237Z,24.50
2022-08-25T14:26:04.797Z,24.99
2022-08-25T14:28:34.173Z,24.69
2022-08-25T14:31:15.339Z,25.41
2022-08-25T14:33:52.026Z,24.45
2022-08-25T14:36:20.967Z,24.44
2022-08-25T14:38:54.537Z,24.41
2022-08-25T14:41:24.078Z,24.82
2022-08-25T14:43:51.151Z,24.65
2022-08-25T14:46:30.816Z,25.15
2022-08-25T14:49:05.099Z,25.79
2022-08-25T14:51:34.046Z,25.32
2022-08-25T14:54:07.543Z,25.19
2022-08-25T14:56:35.951Z,24.94
2022-08-25T14:59:04.912Z,25.06
2022-08-25T15:01:32.025Z,25.14
2022-08-25T15:04:27.708Z,26.03
2022-08-25T15:07:02.836Z,26.41
2022-08-25T15:09:33.574Z,26.29
2022-08-25T15:12:01.079Z,26.48
2022-08-25T15:14:28.903Z,26.70
2022-08-25T15:17:01.604Z,27.21
2022-08-25T15:19:29.440Z,27.40
2022-08-25T15:21:58.148Z,26.72
2022-08-25T15:24:27.959Z,27.60
2022-08-25T15:26:58.734Z,27.95
2022-08-25T15:29:29.933Z,28.01
2022-08-25T15:31:58.939Z,28.36
2022-08-25T15:34:26.403Z,28.39
2022-08-25T15:36:53.686Z,29.13
2022-08-25T15:39:20.830Z,29.25
2022-08-25T15:41:54.499Z,29.41
2022-08-25T15:44:25.079Z,28.18
2022-08-25T15:46:56.383Z,27.37
2022-08-25T15:49:24.182Z,28.66
2022-08-25T15:51:53.064Z,28.89
2022-08-25T15:54:23.605Z,29.05
2022-08-25T15:56:54.219Z,29.38
2022-08-25T15:59:22.528Z,30.08
2022-08-25T16:01:55.512Z,30.11
2022-08-25T16:04:24.408Z,30.38
2022-08-25T16:06:52.136Z,30.08
2022-08-25T16:09:23.008Z,30.51
2022-08-25T16:11:57.172Z,30.50
2022-08-25T16:14:27.840Z,30.92
2022-08-25T16:16:58.005Z,30.88
2022-08-25T16:19:28.151Z,31.24
2022-08-25T16:21:55.217Z,31.71
2022-08-25T16:24:22.357Z,32.41
2022-08-25T16:26:50.346Z,32.42
2022-08-25T16:29:19.988Z,32.54
2022-08-25T16:31:53.218Z,33.03
2022-08-25T16:34:24.799Z,33.40
2022-08-25T16:36:55.802Z,33.60
2022-08-25T16:39:24.011Z,33.77
2022-08-25T16:41:52.332Z,33.90
2022-08-25T16:44:22.511Z,34.26
2022-08-25T16:46:54.397Z,34.27
2022-08-25T16:49:24.249Z,34.32
2022-08-25T16:51:57.169Z,34.90
2022-08-25T16:54:44.488Z,35.23
2022-08-25T16:57:12.000Z,35.37
2022-08-25T16:59:38.998Z,35.99
2022-08-25T17:02:06.762Z,36.24
2022-08-25T17:04:33.882Z,36.51
2022-08-25T17:07:01.872Z,36.16
2022-08-25T17:09:29.709Z,36.67
2022-08-25T17:11:57.417Z,36.47
2022-08-25T17:14:25.173Z,36.97
2022-08-25T17:16:55.265Z,36.97
2022-08-25T17:19:25.053Z,37.34
2022-08-25T17:21:53.871Z,37.79
2022-08-25T17:24:21.743Z,38.18
2022-08-25T17:26:57.010Z,38.31
2022-08-25T17:29:24.722Z,38.36
2022-08-25T17:31:52.025Z,38.64
2022-08-25T17:34:23.157Z,38.89
2022-08-25T17:36:51.999Z,39.25
2022-08-25T17:39:22.250Z,39.31
2022-08-25T17:41:50.745Z,39.57
2022-08-25T17:44:19.435Z,39.51
2022-08-25T17:46:47.997Z,39.48
2022-08-25T17:49:16.567Z,39.92
2022-08-25T17:51:43.621Z,40.54
2022-08-25T17:54:12.374Z,40.46
2022-08-25T17:56:39.933Z,40.12
2022-08-25T17:59:07.618Z,41.05
2022-08-25T18:01:40.418Z,40.92
2022-08-25T18:04:14.267Z,40.95
2022-08-25T18:06:48.655Z,41.24
2022-08-25T18:09:17.496Z,41.60
2022-08-25T18:11:45.698Z,41.65
2022-08-25T18:14:14.474Z,42.06
2022-08-25T18:16:42.145Z,42.17
2022-08-25T18:19:10.949Z,42.41
2022-08-25T18:21:38.916Z,43.02
2022-08-25T18:24:08.048Z,43.02
2022-08-25T18:26:35.813Z,43.07
2022-08-25T18:29:03.244Z,43.29
2022-08-25T18:31:30.998Z,43.64
2022-08-25T18:33:59.417Z,43.75
2022-08-25T18:36:26.390Z,44.01
2022-08-25T18:39:13.644Z,43.96
2022-08-25T18:41:42.684Z,43.85
2022-08-25T18:44:12.479Z,43.85
2022-08-25T18:46:42.841Z,44.09
2022-08-25T18:49:12.548Z,44.18
2022-08-25T18:51:45.685Z,44.38
2022-08-25T18:54:22.370Z,44.20
2022-08-25T18:56:51.972Z,43.82
2022-08-25T18:59:20.202Z,43.85
2022-08-25T19:01:51.787Z,44.22
2022-08-25T19:04:18.854Z,43.96
2022-08-25T19:06:45.906Z,44.28
2022-08-25T19:09:13.600Z,44.63
2022-08-25T19:11:43.388Z,44.96
2022-08-25T19:14:12.659Z,45.03
2022-08-25T19:16:41.592Z,45.45
2022-08-25T19:19:12.606Z,45.54
2022-08-25T19:21:41.341Z,46.02
2022-08-25T19:24:11.167Z,46.33
2022-08-25T19:26:38.955Z,46.30
2022-08-25T19:29:10.642Z,46.64
2022-08-25T19:31:39.625Z,46.68
2022-08-25T19:34:08.871Z,47.06
2022-08-25T19:36:36.174Z,47.24
2022-08-25T19:39:06.940Z,47.22
2022-08-25T19:41:34.354Z,47.52
2022-08-25T19:44:03.112Z,47.67
2022-08-25T19:46:37.479Z,47.90
2022-08-25T19:49:08.810Z,47.81
2022-08-25T19:51:44.072Z,48.38
2022-08-25T19:54:17.740Z,48.24
2022-08-25T19:56:54.855Z,48.33
2022-08-25T19:59:40.618Z,48.57
2022-08-25T20:02:17.219Z,49.21
2022-08-25T20:04:49.587Z,49.16
2022-08-25T20:07:20.230Z,49.34
2022-08-25T20:09:48.372Z,49.56
2022-08-25T20:14:48.979Z,49.67
2022-08-25T20:17:23.726Z,49.85
2022-08-25T20:19:54.405Z,49.87
2022-08-25T20:22:25.840Z,49.98
2022-08-25T20:24:57.538Z,49.88
2022-08-25T20:27:32.315Z,50.14
2022-08-25T20:30:02.623Z,50.24
2022-08-25T20:32:33.867Z,50.54
2022-08-25T20:35:02.066Z,50.22
2022-08-25T20:37:31.193Z,50.36
2022-08-25T20:40:01.073Z,50.15
2022-08-25T20:42:28.265Z,50.17
2022-08-25T20:44:55.340Z,50.58
2022-08-25T20:47:22.790Z,51.09
2022-08-25T20:49:50.311Z,51.26
2022-08-25T20:54:46.912Z,51.68
2022-08-25T20:57:25.716Z,51.99
2022-08-25T20:59:54.895Z,52.06
2022-08-25T21:02:23.287Z,52.10
2022-08-25T21:04:50.774Z,52.28
2022-08-25T21:07:18.682Z,52.56
2022-08-25T21:09:46.709Z,52.51
2022-08-25T21:12:14.551Z,52.72
2022-08-25T21:14:42.201Z,52.76
2022-08-25T21:17:12.779Z,53.01
2022-08-25T21:19:41.667Z,52.91
2022-08-25T21:22:10.667Z,53.18
2022-08-25T21:24:39.201Z,53.28
2022-08-25T21:27:06.550Z,53.36
2022-08-25T21:29:33.804Z,53.21
2022-08-25T21:32:00.869Z,53.77
2022-08-25T21:34:29.032Z,53.96
2022-08-25T21:36:58.178Z,54.19
2022-08-25T21:39:28.677Z,54.42
2022-08-25T21:41:56.639Z,54.35
2022-08-25T21:44:23.686Z,54.58
2022-08-25T21:46:54.071Z,54.57
2022-08-25T21:49:23.410Z,54.94
2022-08-25T21:52:00.505Z,54.94
2022-08-25T21:54:29.180Z,55.36
2022-08-25T21:57:02.748Z,56.09
2022-08-25T21:59:41.148Z,56.25
2022-08-25T22:02:10.689Z,55.66
2022-08-25T22:04:39.541Z,55.68
2022-08-25T22:07:08.188Z,55.64
2022-08-25T22:09:35.794Z,55.95
2022-08-25T22:12:03.926Z,56.26
2022-08-25T22:14:31.219Z,56.30
2022-08-25T22:16:58.243Z,56.00
2022-08-25T22:19:26.942Z,56.02
2022-08-25T22:21:55.239Z,56.01
2022-08-25T22:24:23.025Z,56.66
2022-08-25T22:26:55.689Z,56.86
2022-08-25T22:29:25.131Z,56.65
2022-08-25T22:31:58.677Z,56.42
2022-08-25T22:34:32.451Z,56.33
2022-08-25T22:37:01.825Z,56.46
2022-08-25T22:39:34.293Z,57.10
2022-08-25T22:42:02.967Z,57.53
2022-08-25T22:44:30.321Z,57.70
2022-08-25T22:46:57.311Z,57.75
2022-08-25T22:49:24.415Z,57.99
2022-08-25T22:51:55.090Z,58.31
2022-08-25T22:54:23.005Z,58.46
2022-08-25T22:56:50.943Z,58.84
2022-08-25T22:59:17.976Z,59.18
2022-08-25T23:01:45.670Z,59.01
2022-08-25T23:04:14.846Z,59.19
2022-08-25T23:06:44.882Z,59.49
2022-08-25T23:09:12.013Z,59.77
2022-08-25T23:11:40.057Z,60.00
2022-08-25T23:14:10.367Z,60.00
2022-08-25T23:16:42.307Z,60.36
2022-08-25T23:19:10.980Z,60.40
2022-08-25T23:22:07.942Z,60.46
2022-08-25T23:24:36.152Z,60.79
2022-08-25T23:27:05.360Z,60.88
2022-08-25T23:29:34.414Z,60.84
2022-08-25T23:32:01.547Z,61.10
2022-08-25T23:34:28.729Z,61.27
2022-08-25T23:36:56.744Z,61.00
2022-08-25T23:39:24.124Z,61.36
2022-08-25T23:41:51.868Z,61.52
2022-08-25T23:44:20.674Z,61.80
2022-08-25T23:46:49.323Z,61.83
2022-08-25T23:49:19.011Z,61.68
2022-08-25T23:51:48.689Z,61.91
2022-08-25T23:54:18.129Z,61.83
2022-08-25T23:56:51.835Z,61.97
2022-08-25T23:59:24.336Z,61.99
